Time;durP1;ratioP1;P1;durP2;ratioP2;P2;SDS_P1;SDS_P2;PMS_P1;PMS_P2;Temp;Humidity;BMP_temperature;BMP_pressure;BME280_temperature;BME280_humidity;BME280_pressure;Samples;Min_cycle;Max_cycle;Signal;HPM_P1;HPM_P2
2023/03/20 00:02:01;;;;;;;19.73;13.43;;;10.70;77.90;;;;;;5015233;28;20575;-79
2023/03/20 00:04:30;;;;;;;20.40;11.87;;;10.70;77.80;;;;;;5012905;28;21098;-79
2023/03/20 00:06:58;;;;;;;19.90;12.03;;;10.60;77.90;;;;;;5005858;28;20463;-82
2023/03/20 00:09:27;;;;;;;23.70;13.83;;;10.60;78.00;;;;;;5011216;28;20477;-78
2023/03/20 00:11:55;;;;;;;49.83;21.53;;;10.60;78.00;;;;;;5006856;28;20484;-81
2023/03/20 00:14:25;;;;;;;65.43;26.17;;;10.60;78.00;;;;;;5013716;28;20608;-81
2023/03/20 00:16:53;;;;;;;42.40;17.67;;;10.60;78.00;;;;;;5009959;28;20455;-79
2023/03/20 00:19:23;;;;;;;50.10;19.50;;;10.60;78.00;;;;;;5009198;28;20458;-80
2023/03/20 00:21:53;;;;;;;32.30;15.83;;;10.60;78.00;;;;;;5021803;28;21099;-80
2023/03/20 00:24:22;;;;;;;29.73;14.10;;;10.60;78.00;;;;;;5012338;28;20460;-79
2023/03/20 00:26:52;;;;;;;21.43;11.07;;;10.60;78.00;;;;;;5013974;28;20942;-80
2023/03/20 00:29:23;;;;;;;20.17;11.00;;;10.60;78.00;;;;;;5011705;28;20468;-83
2023/03/20 00:31:53;;;;;;;26.97;12.87;;;10.60;78.00;;;;;;5013534;28;20491;-78
2023/03/20 00:34:25;;;;;;;25.87;11.40;;;10.60;77.90;;;;;;5013403;28;20486;-81
2023/03/20 00:36:56;;;;;;;15.77;9.40;;;10.60;78.00;;;;;;5009630;28;20465;-82
2023/03/20 00:39:25;;;;;;;12.07;8.20;;;10.60;78.00;;;;;;5007750;28;21336;-81
2023/03/20 00:41:56;;;;;;;12.40;7.90;;;10.60;78.00;;;;;;5005631;28;20467;-80
2023/03/20 00:44:26;;;;;;;24.53;12.80;;;10.60;77.80;;;;;;5008545;28;20466;-79
2023/03/20 00:46:56;;;;;;;15.90;10.17;;;10.60;77.90;;;;;;5011925;28;20480;-78
2023/03/20 00:49:27;;;;;;;17.03;9.20;;;10.60;77.80;;;;;;5010091;28;21032;-80
2023/03/20 00:51:58;;;;;;;14.97;8.60;;;10.60;77.80;;;;;;5009498;28;20460;-79
2023/03/20 00:54:26;;;;;;;14.73;9.20;;;10.50;77.70;;;;;;5002417;28;21238;-79
2023/03/20 00:56:57;;;;;;;16.13;8.50;;;10.50;77.80;;;;;;5013121;28;20716;-80
2023/03/20 00:59:28;;;;;;;14.40;8.87;;;10.50;77.70;;;;;;5009969;28;20551;-82
2023/03/20 01:01:57;;;;;;;113.17;41.07;;;10.50;77.60;;;;;;5012668;28;20476;-81
2023/03/20 01:04:31;;;;;;;86.87;33.27;;;10.40;77.50;;;;;;5011858;28;20462;-78
2023/03/20 01:07:00;;;;;;;25.77;12.43;;;10.40;77.40;;;;;;5012305;28;20470;-80
2023/03/20 01:09:28;;;;;;;16.20;9.53;;;10.30;77.40;;;;;;5008715;28;20474;-81
2023/03/20 01:11:56;;;;;;;15.43;9.27;;;10.20;77.50;;;;;;5012276;28;20444;-80
2023/03/20 01:14:25;;;;;;;17.90;8.23;;;10.20;77.60;;;;;;5011763;28;20473;-80
2023/03/20 01:16:54;;;;;;;13.83;7.90;;;10.20;77.70;;;;;;5012899;28;20468;-81
2023/03/20 01:19:22;;;;;;;16.63;8.43;;;10.20;77.70;;;;;;5007894;28;20495;-80
2023/03/20 01:21:50;;;;;;;16.50;8.80;;;10.20;77.60;;;;;;5007071;28;21052;-80
2023/03/20 01:24:20;;;;;;;16.53;8.77;;;10.20;77.50;;;;;;5010259;28;20457;-81
2023/03/20 01:26:50;;;;;;;12.00;6.70;;;10.20;77.50;;;;;;5013133;28;20948;-80
2023/03/20 01:29:20;;;;;;;14.47;7.00;;;10.10;77.50;;;;;;5020297;28;21245;-81
2023/03/20 01:31:51;;;;;;;10.53;6.33;;;10.10;77.50;;;;;;5009436;28;20492;-81
2023/03/20 01:34:21;;;;;;;10.33;6.97;;;10.10;77.40;;;;;;5008512;28;20468;-81
2023/03/20 01:36:51;;;;;;;11.60;6.20;;;10.10;77.40;;;;;;5004416;28;20487;-80
2023/03/20 01:39:23;;;;;;;9.80;5.87;;;10.10;77.40;;;;;;5009980;28;20468;-80
2023/03/20 01:41:53;;;;;;;10.47;6.60;;;10.10;77.40;;;;;;5014085;28;20476;-81
2023/03/20 01:44:24;;;;;;;10.53;6.60;;;10.10;77.30;;;;;;5013751;28;21024;-81
2023/03/20 01:46:56;;;;;;;8.23;5.77;;;10.10;77.30;;;;;;5018861;28;20460;-80
2023/03/20 01:50:17;;;;;;;10.70;6.47;;;10.10;77.20;;;;;;5011746;28;20882;-80
2023/03/20 01:52:47;;;;;;;12.87;6.40;;;10.10;77.10;;;;;;4970342;28;20462;-82
2023/03/20 01:55:17;;;;;;;10.70;6.90;;;10.00;77.20;;;;;;4955565;28;21011;-81
2023/03/20 01:57:53;;;;;;;12.43;8.03;;;10.00;77.20;;;;;;4989844;28;20468;-82
2023/03/20 02:00:22;;;;;;;14.67;7.77;;;10.00;77.20;;;;;;5010582;28;20466;-83
2023/03/20 02:02:53;;;;;;;13.10;8.10;;;10.00;77.30;;;;;;5014342;28;20468;-83
2023/03/20 02:05:51;;;;;;;12.03;6.80;;;10.10;77.30;;;;;;4996685;28;20451;-83
2023/03/20 02:08:25;;;;;;;58.00;25.43;;;10.10;77.20;;;;;;5008774;28;20587;-82
2023/03/20 02:10:57;;;;;;;37.47;16.50;;;10.00;77.00;;;;;;5013527;28;20456;-80
2023/03/20 02:13:30;;;;;;;21.43;10.13;;;10.00;77.00;;;;;;5004450;28;20477;-80
2023/03/20 02:16:03;;;;;;;16.27;9.53;;;9.90;77.10;;;;;;5007921;28;20473;-81
2023/03/20 02:18:56;;;;;;;15.60;9.30;;;9.90;77.10;;;;;;5007398;28;20511;-81
2023/03/20 02:22:01;;;;;;;67.67;28.90;;;9.90;77.20;;;;;;5005298;28;20461;-82
2023/03/20 02:25:14;;;;;;;37.53;14.17;;;9.90;77.20;;;;;;4991129;28;20850;-79
2023/03/20 02:28:05;;;;;;;65.43;26.30;;;9.90;77.30;;;;;;5010817;28;20488;-79
2023/03/20 02:30:56;;;;;;;39.57;17.80;;;9.90;77.40;;;;;;4995413;28;20990;-79
2023/03/20 02:33:49;;;;;;;25.93;12.97;;;9.90;77.50;;;;;;5009988;28;20858;-79
2023/03/20 02:36:50;;;;;;;27.37;12.23;;;10.00;77.60;;;;;;5007714;28;20483;-78
2023/03/20 02:39:39;;;;;;;32.60;14.60;;;10.00;77.60;;;;;;4998014;28;20461;-80
2023/03/20 02:42:13;;;;;;;26.60;12.10;;;10.00;77.60;;;;;;5008650;28;20460;-78
2023/03/20 02:44:47;;;;;;;21.43;11.03;;;10.00;77.70;;;;;;5009167;28;20468;-77
2023/03/20 02:47:23;;;;;;;15.80;9.27;;;10.10;77.70;;;;;;5005225;28;20695;-78
2023/03/20 02:49:57;;;;;;;9.63;6.83;;;10.10;77.80;;;;;;5005993;28;20551;-81
2023/03/20 02:52:35;;;;;;;11.17;7.07;;;10.20;77.80;;;;;;5007875;28;20550;-79
2023/03/20 02:55:14;;;;;;;10.97;7.23;;;10.20;77.90;;;;;;5012132;28;20467;-81
2023/03/20 02:57:51;;;;;;;14.73;7.00;;;10.20;77.90;;;;;;5007708;28;20479;-80
2023/03/20 03:00:27;;;;;;;11.10;7.00;;;10.30;78.10;;;;;;4992723;28;20507;-78
2023/03/20 03:03:02;;;;;;;11.30;8.10;;;10.30;78.20;;;;;;5012123;28;20910;-79
2023/03/20 03:05:36;;;;;;;9.90;7.27;;;10.40;78.10;;;;;;4987705;28;20452;-80
2023/03/20 03:08:06;;;;;;;9.80;6.77;;;10.40;78.20;;;;;;5007335;28;20465;-81
2023/03/20 03:10:39;;;;;;;9.10;6.17;;;10.50;78.40;;;;;;5012687;28;20954;-81
2023/03/20 03:13:15;;;;;;;9.93;6.40;;;10.50;78.40;;;;;;5002697;28;20461;-82
2023/03/20 03:15:46;;;;;;;10.10;6.40;;;10.50;78.40;;;;;;5003991;28;20460;-78
2023/03/20 03:18:18;;;;;;;9.73;6.37;;;10.50;78.40;;;;;;5008548;28;20460;-82
2023/03/20 03:20:48;;;;;;;10.77;7.20;;;10.60;78.40;;;;;;5012542;28;20465;-77
2023/03/20 03:23:23;;;;;;;11.20;7.07;;;10.60;78.30;;;;;;5007707;28;20888;-78
2023/03/20 03:25:55;;;;;;;13.00;8.03;;;10.60;78.30;;;;;;5007023;28;20459;-77
2023/03/20 03:28:29;;;;;;;16.27;8.23;;;10.60;78.40;;;;;;5007177;28;20466;-80
2023/03/20 03:30:58;;;;;;;10.13;7.20;;;10.60;78.60;;;;;;5006998;28;20495;-76
2023/03/20 03:33:29;;;;;;;11.57;6.83;;;10.60;78.70;;;;;;5003542;28;20460;-77
2023/03/20 03:36:06;;;;;;;10.53;7.10;;;10.70;78.70;;;;;;5010320;28;20483;-78
2023/03/20 03:38:43;;;;;;;12.63;8.20;;;10.70;78.80;;;;;;5006462;28;20552;-78
2023/03/20 03:41:20;;;;;;;11.50;8.43;;;10.80;78.90;;;;;;5009368;28;20466;-77
2023/03/20 03:43:54;;;;;;;12.40;9.00;;;10.80;79.00;;;;;;5009368;28;20557;-77
2023/03/20 03:46:29;;;;;;;14.47;9.33;;;10.80;79.10;;;;;;5004953;28;20461;-79
2023/03/20 03:48:59;;;;;;;15.40;9.20;;;10.80;79.20;;;;;;5005489;28;20461;-79
2023/03/20 03:51:31;;;;;;;14.67;8.23;;;10.80;79.30;;;;;;5010473;28;20475;-78
2023/03/20 03:54:09;;;;;;;15.37;9.60;;;10.90;79.30;;;;;;5008405;28;20929;-77
2023/03/20 03:56:41;;;;;;;12.87;9.20;;;10.90;79.40;;;;;;5009468;28;21110;-78
2023/03/20 03:59:13;;;;;;;13.47;9.63;;;10.90;79.40;;;;;;4995418;28;20472;-80
2023/03/20 04:01:43;;;;;;;13.17;8.77;;;10.90;79.50;;;;;;4992137;28;20479;-77
2023/03/20 04:04:15;;;;;;;11.73;8.90;;;10.90;79.50;;;;;;5008677;28;20501;-78
2023/03/20 04:06:43;;;;;;;15.17;9.33;;;10.90;79.60;;;;;;5012647;28;20633;-79
2023/03/20 04:09:11;;;;;;;12.17;8.83;;;10.90;79.70;;;;;;5011794;28;20556;-79
2023/03/20 04:11:40;;;;;;;12.70;9.50;;;11.00;79.70;;;;;;5013316;28;20526;-78
2023/03/20 04:14:08;;;;;;;15.73;10.70;;;11.00;79.70;;;;;;5008145;28;20493;-81
2023/03/20 04:16:37;;;;;;;14.70;10.57;;;11.00;79.70;;;;;;5013245;28;20500;-79
2023/03/20 04:19:05;;;;;;;17.07;10.57;;;11.10;79.80;;;;;;4998848;28;20734;-80
2023/03/20 04:21:33;;;;;;;15.07;10.37;;;11.00;79.70;;;;;;5012422;28;20547;-81
2023/03/20 04:24:01;;;;;;;15.80;10.83;;;11.10;79.80;;;;;;5010488;28;20811;-78
2023/03/20 04:26:29;;;;;;;14.20;10.33;;;11.10;79.90;;;;;;5017006;28;20468;-78
2023/03/20 04:28:59;;;;;;;15.40;10.20;;;11.10;79.90;;;;;;5009966;28;20468;-81
2023/03/20 04:31:46;;;;;;;15.87;10.30;;;11.10;79.90;;;;;;5007736;28;20485;-79
2023/03/20 04:34:18;;;;;;;18.43;12.80;;;11.10;79.90;;;;;;5015658;28;20465;-79
2023/03/20 04:36:59;;;;;;;17.17;12.10;;;11.10;80.00;;;;;;5013775;28;20514;-78
2023/03/20 04:39:41;;;;;;;18.80;11.50;;;11.10;80.00;;;;;;5011923;28;20679;-81
2023/03/20 04:42:09;;;;;;;16.97;11.53;;;11.20;80.00;;;;;;5010214;28;20460;-78
2023/03/20 04:44:39;;;;;;;17.47;12.10;;;11.20;80.10;;;;;;5008883;28;20556;-79
2023/03/20 04:47:08;;;;;;;19.03;12.80;;;11.20;80.10;;;;;;4992611;28;20485;-81
2023/03/20 04:49:40;;;;;;;20.90;12.87;;;11.20;80.10;;;;;;5010982;28;20462;-79
2023/03/20 04:52:08;;;;;;;20.50;13.17;;;11.20;80.20;;;;;;5010651;28;20466;-82
2023/03/20 04:54:40;;;;;;;18.43;12.80;;;11.20;80.20;;;;;;5007898;28;20555;-81
2023/03/20 04:57:08;;;;;;;19.90;13.57;;;11.20;80.30;;;;;;5009734;28;20572;-83
2023/03/20 04:59:38;;;;;;;22.50;14.80;;;11.20;80.20;;;;;;5019064;28;20488;-80
2023/03/20 05:02:07;;;;;;;18.50;12.63;;;11.20;80.20;;;;;;5008535;28;21159;-78
2023/03/20 05:04:35;;;;;;;21.63;14.80;;;11.30;80.20;;;;;;4996453;28;20460;-79
2023/03/20 05:07:03;;;;;;;22.93;14.20;;;11.30;80.20;;;;;;5002518;28;20462;-78
2023/03/20 05:09:40;;;;;;;22.07;14.33;;;11.30;80.20;;;;;;4995120;28;21169;-79
2023/03/20 05:12:10;;;;;;;23.60;14.63;;;11.30;80.30;;;;;;5011748;28;20463;-82
2023/03/20 05:14:57;;;;;;;22.57;15.73;;;11.30;80.30;;;;;;5011466;28;20508;-80
2023/03/20 05:17:49;;;;;;;22.90;14.57;;;11.30;80.30;;;;;;5005839;28;20482;-80
2023/03/20 05:20:46;;;;;;;20.90;14.60;;;11.30;80.50;;;;;;5009007;28;20465;-77
2023/03/20 05:23:24;;;;;;;22.57;14.57;;;11.30;80.50;;;;;;5004190;28;20474;-78
2023/03/20 05:26:05;;;;;;;23.03;15.13;;;11.30;80.50;;;;;;5005560;28;20469;-79
2023/03/20 05:28:51;;;;;;;23.13;14.93;;;11.30;80.50;;;;;;4993758;28;20478;-79
2023/03/20 05:31:35;;;;;;;22.20;14.93;;;11.30;80.50;;;;;;5009645;28;20757;-79
2023/03/20 05:34:12;;;;;;;28.77;15.77;;;11.30;80.60;;;;;;5004629;28;20831;-79
2023/03/20 05:36:43;;;;;;;20.70;14.23;;;11.40;80.60;;;;;;5008082;28;20667;-81
2023/03/20 05:39:30;;;;;;;24.00;15.67;;;11.40;80.60;;;;;;5007163;28;20542;-81
2023/03/20 05:42:17;;;;;;;20.63;14.90;;;11.40;80.60;;;;;;5010136;28;20544;-80
2023/03/20 05:45:02;;;;;;;25.30;16.83;;;11.40;80.60;;;;;;4994132;28;20467;-80
2023/03/20 05:47:47;;;;;;;22.10;14.23;;;11.40;80.60;;;;;;4992935;28;20470;-80
2023/03/20 05:50:45;;;;;;;21.23;13.63;;;11.40;80.60;;;;;;5009578;28;20530;-80
2023/03/20 05:53:23;;;;;;;21.70;15.20;;;11.40;80.70;;;;;;5005420;28;20505;-79
2023/03/20 05:56:12;;;;;;;26.33;17.07;;;11.40;80.70;;;;;;5011170;28;20478;-78
2023/03/20 05:58:41;;;;;;;23.60;16.27;;;11.40;80.70;;;;;;5009412;28;20485;-81
2023/03/20 06:01:35;;;;;;;21.13;14.20;;;11.50;80.70;;;;;;5005068;28;20506;-79
2023/03/20 06:04:25;;;;;;;21.20;14.77;;;11.50;80.70;;;;;;5003416;28;20531;-82
2023/03/20 06:07:09;;;;;;;18.53;12.87;;;11.50;80.80;;;;;;4994303;28;21016;-80
2023/03/20 06:09:39;;;;;;;20.67;14.33;;;11.50;80.80;;;;;;5011538;28;20469;-82
2023/03/20 06:12:12;;;;;;;18.10;13.10;;;11.50;80.70;;;;;;5008298;28;20495;-83
2023/03/20 06:14:41;;;;;;;17.00;12.80;;;11.50;80.70;;;;;;5011888;28;20468;-80
2023/03/20 06:17:18;;;;;;;18.97;13.53;;;11.50;80.70;;;;;;5013539;28;20550;-80
2023/03/20 06:19:54;;;;;;;17.50;12.10;;;11.50;80.80;;;;;;5012187;28;20481;-81
2023/03/20 06:22:22;;;;;;;18.33;12.97;;;11.50;80.80;;;;;;4996366;28;20464;-80
2023/03/20 06:24:50;;;;;;;15.30;11.53;;;11.50;80.90;;;;;;5012466;28;20461;-81
2023/03/20 06:27:19;;;;;;;16.83;12.37;;;11.50;80.80;;;;;;5003919;28;20465;-81
2023/03/20 06:29:49;;;;;;;16.23;11.67;;;11.50;80.80;;;;;;5008283;28;20837;-81
2023/03/20 06:32:22;;;;;;;14.93;10.80;;;11.60;80.80;;;;;;5009730;28;20605;-82
2023/03/20 06:34:54;;;;;;;15.73;11.53;;;11.60;80.80;;;;;;4996047;28;20997;-82
2023/03/20 06:37:24;;;;;;;17.33;12.53;;;11.60;80.70;;;;;;5011262;28;20460;-78
2023/03/20 06:40:01;;;;;;;15.67;11.43;;;11.60;80.80;;;;;;5009668;28;20544;-82
2023/03/20 06:42:31;;;;;;;15.90;11.77;;;11.60;80.80;;;;;;4991568;28;20819;-81
2023/03/20 06:44:59;;;;;;;15.80;11.77;;;11.60;80.90;;;;;;4996412;28;21001;-80
2023/03/20 06:47:45;;;;;;;20.93;11.83;;;11.70;80.90;;;;;;5008468;28;20460;-83
2023/03/20 06:50:15;;;;;;;14.77;10.83;;;11.70;80.90;;;;;;5001314;28;20476;-82
2023/03/20 06:52:44;;;;;;;12.90;10.40;;;11.80;80.90;;;;;;5010219;28;20794;-82
2023/03/20 06:55:30;;;;;;;15.03;10.87;;;11.80;80.80;;;;;;5017864;28;20493;-81
2023/03/20 06:57:58;;;;;;;12.87;10.00;;;11.80;80.70;;;;;;4998492;28;20479;-80
2023/03/20 07:00:28;;;;;;;15.10;11.27;;;11.80;80.80;;;;;;5009794;28;20584;-81
2023/03/20 07:03:01;;;;;;;12.00;9.03;;;11.80;80.80;;;;;;5014797;28;20471;-80
2023/03/20 07:05:31;;;;;;;14.93;10.17;;;11.80;80.80;;;;;;5011186;28;20499;-83
2023/03/20 07:08:00;;;;;;;13.27;9.50;;;11.90;80.80;;;;;;4999659;28;20619;-81
2023/03/20 07:10:28;;;;;;;14.57;9.97;;;11.90;80.80;;;;;;5015032;28;20732;-83
2023/03/20 07:12:56;;;;;;;13.50;9.50;;;11.90;80.80;;;;;;5022062;28;20533;-79
2023/03/20 07:15:24;;;;;;;12.63;10.20;;;11.90;80.80;;;;;;4994701;28;20794;-80
2023/03/20 07:17:54;;;;;;;14.40;9.80;;;11.90;80.70;;;;;;5011390;28;20556;-83
2023/03/20 07:20:22;;;;;;;12.47;8.23;;;11.90;80.80;;;;;;4999866;28;20486;-79
2023/03/20 07:22:52;;;;;;;12.77;9.87;;;11.90;80.80;;;;;;5011408;28;20602;-84
2023/03/20 07:25:25;;;;;;;13.03;9.07;;;11.90;80.90;;;;;;4994377;28;21151;-81
2023/03/20 07:28:09;;;;;;;14.03;9.73;;;11.90;80.80;;;;;;5011843;28;20546;-81
2023/03/20 07:30:41;;;;;;;13.23;9.90;;;11.90;80.80;;;;;;5005770;28;20468;-84
2023/03/20 07:33:10;;;;;;;12.50;9.60;;;11.90;80.90;;;;;;5008066;28;20455;-79
2023/03/20 07:35:39;;;;;;;12.77;9.83;;;11.90;80.90;;;;;;4996050;28;20475;-80
2023/03/20 07:38:09;;;;;;;12.27;9.70;;;12.00;80.80;;;;;;4993902;28;20545;-79
2023/03/20 07:40:48;;;;;;;11.97;9.40;;;11.90;80.80;;;;;;5012051;28;20623;-79
2023/03/20 07:43:17;;;;;;;14.07;9.70;;;11.90;81.00;;;;;;5005794;28;20474;-80
2023/03/20 07:46:05;;;;;;;12.17;9.87;;;11.90;81.00;;;;;;5009960;28;20544;-80
2023/03/20 07:48:34;;;;;;;17.57;10.50;;;11.80;81.10;;;;;;5008347;28;20460;-80
2023/03/20 07:51:03;;;;;;;15.80;10.67;;;11.80;81.20;;;;;;5013621;28;21636;-81
2023/03/20 07:53:33;;;;;;;14.50;10.80;;;11.80;81.20;;;;;;5007045;28;20472;-80
2023/03/20 07:56:01;;;;;;;15.17;10.57;;;11.80;81.30;;;;;;5009577;28;20478;-83
2023/03/20 07:58:31;;;;;;;17.10;11.07;;;11.80;81.30;;;;;;5009378;28;20482;-78
2023/03/20 08:01:02;;;;;;;14.27;10.27;;;11.80;81.40;;;;;;5005333;28;20496;-79
2023/03/20 08:03:31;;;;;;;15.37;11.37;;;11.90;81.40;;;;;;5008740;28;20466;-80
2023/03/20 08:05:59;;;;;;;14.53;10.80;;;11.90;81.30;;;;;;5013351;28;20747;-79
2023/03/20 08:08:27;;;;;;;15.70;11.20;;;11.90;81.30;;;;;;5007794;28;20474;-81
2023/03/20 08:10:56;;;;;;;15.27;10.33;;;11.90;81.30;;;;;;5012106;28;20959;-81
2023/03/20 08:13:24;;;;;;;16.70;12.47;;;11.90;81.30;;;;;;5011635;28;20474;-79
2023/03/20 08:15:52;;;;;;;17.73;12.00;;;11.90;81.30;;;;;;5006438;28;20474;-78
2023/03/20 08:18:21;;;;;;;15.60;11.20;;;11.90;81.30;;;;;;5012634;28;20523;-80
2023/03/20 08:20:49;;;;;;;13.90;10.57;;;11.90;81.30;;;;;;5010492;28;20465;-79
2023/03/20 08:23:17;;;;;;;17.10;12.03;;;11.90;81.20;;;;;;5007134;28;20474;-79
2023/03/20 08:25:52;;;;;;;18.67;12.63;;;11.90;81.30;;;;;;5006143;28;20462;-79
2023/03/20 08:28:26;;;;;;;17.60;11.67;;;11.90;81.30;;;;;;5009016;28;20486;-80
2023/03/20 08:31:14;;;;;;;18.33;12.60;;;11.90;81.40;;;;;;5009783;28;20481;-76
2023/03/20 08:33:42;;;;;;;18.50;12.00;;;11.90;81.40;;;;;;5009107;28;20498;-76
2023/03/20 08:36:10;;;;;;;17.63;12.40;;;11.90;81.50;;;;;;5009927;28;20479;-76
2023/03/20 08:38:39;;;;;;;19.70;12.47;;;12.00;81.50;;;;;;5010582;28;20471;-77
2023/03/20 08:41:07;;;;;;;18.47;12.10;;;12.00;81.50;;;;;;5008873;28;20457;-77
2023/03/20 08:43:36;;;;;;;19.77;14.50;;;12.00;81.50;;;;;;5009187;28;20476;-77
2023/03/20 08:46:05;;;;;;;20.10;13.80;;;12.10;81.50;;;;;;5008692;28;20475;-79
2023/03/20 08:48:33;;;;;;;22.93;14.37;;;12.10;81.40;;;;;;5006815;28;20475;-78
2023/03/20 08:51:01;;;;;;;18.97;13.00;;;12.10;81.50;;;;;;5005035;28;20483;-80
2023/03/20 08:53:29;;;;;;;20.53;13.70;;;12.20;81.40;;;;;;5008529;28;20804;-80
2023/03/20 08:55:57;;;;;;;17.83;12.70;;;12.20;81.40;;;;;;5005489;28;20845;-78
2023/03/20 08:58:25;;;;;;;20.30;14.30;;;12.20;81.30;;;;;;5004117;28;20477;-80
2023/03/20 09:00:54;;;;;;;19.57;13.70;;;12.30;81.30;;;;;;5013368;28;20500;-79
2023/03/20 09:03:22;;;;;;;21.53;14.10;;;12.30;81.30;;;;;;5008354;28;20478;-81
2023/03/20 09:05:51;;;;;;;21.33;14.70;;;12.30;81.30;;;;;;5006756;28;20537;-80
2023/03/20 09:08:19;;;;;;;21.10;13.57;;;12.30;81.30;;;;;;5004892;28;20647;-79
2023/03/20 09:10:48;;;;;;;22.13;14.50;;;12.30;81.20;;;;;;5009620;28;20439;-80
2023/03/20 09:13:21;;;;;;;25.67;14.67;;;12.30;81.30;;;;;;5010073;28;21326;-79
2023/03/20 09:15:56;;;;;;;23.20;14.27;;;12.30;81.30;;;;;;5006993;28;20467;-80
2023/03/20 09:18:26;;;;;;;22.13;13.53;;;12.30;81.30;;;;;;5003282;28;20460;-78
2023/03/20 09:20:55;;;;;;;23.00;14.10;;;12.30;81.30;;;;;;5010263;28;20469;-77
2023/03/20 09:23:23;;;;;;;21.90;14.80;;;12.30;81.30;;;;;;5010737;28;20460;-78
2023/03/20 09:25:51;;;;;;;25.87;17.40;;;12.30;81.30;;;;;;5008193;28;20452;-79
2023/03/20 09:28:20;;;;;;;25.70;17.40;;;12.30;81.40;;;;;;5007305;28;20525;-79
2023/03/20 09:30:47;;;;;;;28.07;18.17;;;12.30;81.40;;;;;;5007164;28;20474;-83
2023/03/20 09:33:17;;;;;;;35.97;18.50;;;12.30;81.40;;;;;;5010585;28;20477;-80
2023/03/20 09:35:45;;;;;;;29.80;17.83;;;12.30;81.40;;;;;;5007685;28;20511;-80
2023/03/20 09:38:14;;;;;;;33.73;19.27;;;12.30;81.40;;;;;;5010462;28;20469;-79
2023/03/20 09:40:51;;;;;;;29.57;19.17;;;12.30;81.40;;;;;;5009925;28;20511;-79
2023/03/20 09:43:29;;;;;;;33.13;19.33;;;12.30;81.40;;;;;;5007046;28;20465;-79
2023/03/20 09:46:07;;;;;;;35.73;20.03;;;12.30;81.30;;;;;;5009564;28;20459;-79
2023/03/20 09:48:43;;;;;;;34.20;19.40;;;12.30;81.20;;;;;;5006918;28;21329;-79
2023/03/20 09:51:21;;;;;;;34.60;19.93;;;12.30;81.30;;;;;;5012314;28;20463;-80
2023/03/20 09:53:53;;;;;;;31.53;18.67;;;12.20;81.30;;;;;;5008130;28;20472;-78
2023/03/20 09:56:25;;;;;;;36.73;20.10;;;12.20;81.30;;;;;;5011405;28;20473;-78
2023/03/20 09:58:55;;;;;;;36.33;21.30;;;12.20;81.40;;;;;;5005417;28;20464;-81
2023/03/20 10:01:30;;;;;;;33.53;19.90;;;12.20;81.40;;;;;;5008987;28;20498;-82
2023/03/20 10:04:04;;;;;;;32.37;19.43;;;12.20;81.50;;;;;;5016728;28;20455;-82
2023/03/20 10:06:33;;;;;;;29.80;18.73;;;12.20;81.60;;;;;;5008709;28;20483;-80
2023/03/20 10:09:03;;;;;;;30.93;19.20;;;12.30;81.70;;;;;;5009213;28;20461;-81
2023/03/20 10:11:54;;;;;;;32.57;19.37;;;12.30;81.70;;;;;;5009968;28;20484;-81
2023/03/20 10:14:27;;;;;;;30.27;17.47;;;12.30;81.80;;;;;;5008429;28;20512;-80
2023/03/20 10:17:14;;;;;;;32.30;17.77;;;12.40;81.80;;;;;;5012499;28;20489;-79
2023/03/20 10:20:03;;;;;;;31.03;17.53;;;12.50;81.90;;;;;;5004855;28;20461;-79
2023/03/20 10:22:36;;;;;;;28.13;16.80;;;12.50;81.90;;;;;;4994030;28;20467;-80
2023/03/20 10:25:14;;;;;;;29.10;16.20;;;12.60;81.80;;;;;;5013638;28;20451;-80
2023/03/20 10:27:47;;;;;;;31.47;16.47;;;12.70;81.60;;;;;;5006183;28;20478;-80
2023/03/20 10:30:29;;;;;;;24.83;14.60;;;12.70;81.50;;;;;;5008503;28;20450;-78
2023/03/20 10:33:08;;;;;;;28.17;15.67;;;12.70;81.50;;;;;;5010052;28;20529;-79
2023/03/20 10:35:41;;;;;;;25.13;13.27;;;12.70;81.50;;;;;;5005657;28;21007;-79
2023/03/20 10:38:26;;;;;;;21.63;12.93;;;12.70;81.50;;;;;;5007310;28;20495;-79
2023/03/20 10:40:57;;;;;;;21.50;13.57;;;12.70;81.30;;;;;;4996437;28;20467;-81
2023/03/20 10:43:29;;;;;;;25.40;14.70;;;12.70;81.30;;;;;;5001750;28;20461;-80
2023/03/20 10:46:01;;;;;;;22.03;13.83;;;12.70;81.30;;;;;;5006201;28;20973;-81
2023/03/20 10:48:32;;;;;;;25.13;13.20;;;12.70;81.50;;;;;;5009512;28;20952;-79
2023/03/20 10:51:05;;;;;;;22.47;13.40;;;12.70;81.40;;;;;;5009608;28;20631;-78
2023/03/20 10:53:41;;;;;;;22.70;14.00;;;12.70;81.50;;;;;;5008497;28;21102;-79
2023/03/20 10:56:14;;;;;;;22.83;12.60;;;12.70;81.50;;;;;;5006226;28;20507;-79
2023/03/20 10:58:48;;;;;;;21.63;13.60;;;12.70;81.40;;;;;;5008419;28;20553;-79
2023/03/20 11:01:16;;;;;;;21.87;13.13;;;12.70;81.30;;;;;;5006454;28;20470;-78
2023/03/20 11:03:44;;;;;;;24.80;14.60;;;12.70;81.30;;;;;;5008365;28;20468;-78
2023/03/20 11:06:19;;;;;;;24.00;13.67;;;12.70;81.30;;;;;;5006465;28;20542;-79
2023/03/20 11:08:50;;;;;;;23.07;13.67;;;12.70;81.20;;;;;;5012121;28;20482;-82
2023/03/20 11:11:23;;;;;;;21.83;14.30;;;12.70;81.30;;;;;;5002632;28;20460;-78
2023/03/20 11:13:51;;;;;;;22.43;13.90;;;12.70;81.30;;;;;;5010016;28;20468;-81
2023/03/20 11:16:22;;;;;;;25.17;14.40;;;12.60;81.40;;;;;;5011954;28;20984;-80
2023/03/20 11:18:52;;;;;;;23.10;13.63;;;12.60;81.40;;;;;;5008336;28;20473;-81
2023/03/20 11:21:24;;;;;;;21.47;13.23;;;12.60;81.40;;;;;;5007207;28;20488;-80
2023/03/20 11:23:54;;;;;;;23.90;14.67;;;12.60;81.40;;;;;;5006874;28;20454;-80
2023/03/20 11:26:34;;;;;;;19.93;13.63;;;12.60;81.30;;;;;;5007475;28;20473;-80
2023/03/20 11:29:05;;;;;;;24.53;15.03;;;12.70;81.40;;;;;;4998156;28;20534;-78
2023/03/20 11:31:35;;;;;;;23.30;14.50;;;12.70;81.40;;;;;;5009124;28;20979;-80
2023/03/20 11:34:21;;;;;;;22.50;13.60;;;12.70;81.50;;;;;;5009551;28;20474;-78
2023/03/20 11:36:56;;;;;;;22.50;13.33;;;12.70;81.50;;;;;;5012655;28;20473;-80
2023/03/20 11:39:56;;;;;;;23.43;13.30;;;12.80;81.50;;;;;;5011657;28;20611;-80
2023/03/20 11:42:27;;;;;;;19.93;12.60;;;12.80;81.50;;;;;;5018446;28;20784;-78
2023/03/20 11:45:01;;;;;;;18.97;11.47;;;12.80;81.50;;;;;;5003665;28;20464;-80
2023/03/20 11:47:33;;;;;;;19.40;11.50;;;12.80;81.50;;;;;;5012257;28;20478;-80
2023/03/20 11:50:04;;;;;;;19.43;11.53;;;12.90;81.40;;;;;;5015525;28;20456;-80
2023/03/20 11:52:35;;;;;;;20.77;12.10;;;12.90;81.40;;;;;;5015202;28;21015;-79
2023/03/20 11:55:07;;;;;;;16.33;10.80;;;12.90;81.40;;;;;;5012775;28;20467;-84
2023/03/20 11:57:37;;;;;;;13.70;9.60;;;12.90;81.30;;;;;;5004800;28;20883;-78
2023/03/20 12:00:16;;;;;;;16.40;10.70;;;13.00;81.40;;;;;;5010668;28;20471;-78
2023/03/20 12:02:45;;;;;;;15.83;10.17;;;13.00;81.30;;;;;;5010954;28;21002;-78
2023/03/20 12:05:28;;;;;;;14.73;8.67;;;13.00;81.40;;;;;;5008755;28;20947;-80
2023/03/20 12:08:01;;;;;;;11.53;6.83;;;13.10;81.30;;;;;;5007828;28;20452;-77
2023/03/20 12:10:35;;;;;;;12.53;8.10;;;13.10;81.20;;;;;;5005289;28;20458;-80
2023/03/20 12:13:11;;;;;;;11.30;7.13;;;13.00;81.20;;;;;;4996570;28;20463;-79
2023/03/20 12:15:44;;;;;;;10.90;6.50;;;13.00;81.20;;;;;;5009613;28;20479;-80
2023/03/20 12:18:17;;;;;;;9.43;5.67;;;13.00;81.20;;;;;;5008690;28;20538;-79
2023/03/20 12:20:54;;;;;;;10.57;6.80;;;13.00;81.20;;;;;;5006592;28;20478;-79
2023/03/20 12:23:31;;;;;;;10.40;6.27;;;13.00;81.30;;;;;;5008472;28;21025;-79
2023/03/20 12:26:06;;;;;;;12.40;7.10;;;13.00;81.30;;;;;;5008327;28;20511;-79
2023/03/20 12:28:39;;;;;;;9.90;6.50;;;13.00;81.40;;;;;;5007214;28;20470;-78
2023/03/20 12:31:20;;;;;;;12.97;6.90;;;13.10;81.40;;;;;;5006616;28;20480;-78
2023/03/20 12:33:53;;;;;;;11.30;6.77;;;13.10;81.50;;;;;;5001408;28;20494;-77
2023/03/20 12:36:29;;;;;;;10.90;6.93;;;13.20;81.60;;;;;;5008732;28;20852;-77
2023/03/20 12:38:59;;;;;;;10.80;7.33;;;13.30;81.60;;;;;;5007421;28;20455;-80
2023/03/20 12:41:32;;;;;;;11.47;7.00;;;13.40;81.50;;;;;;5012525;28;20482;-77
2023/03/20 12:44:20;;;;;;;12.90;7.50;;;13.50;81.40;;;;;;5007247;28;20487;-79
2023/03/20 12:46:54;;;;;;;12.97;7.20;;;13.50;81.30;;;;;;5013798;28;21352;-78
2023/03/20 12:49:32;;;;;;;13.00;8.40;;;13.70;81.10;;;;;;5010589;28;20465;-78
2023/03/20 12:52:09;;;;;;;11.63;7.77;;;13.70;81.00;;;;;;5013366;28;20462;-80
2023/03/20 12:54:51;;;;;;;13.43;8.03;;;13.70;80.80;;;;;;5010312;28;20734;-81
2023/03/20 12:57:26;;;;;;;12.90;8.17;;;13.80;80.70;;;;;;5003573;28;20473;-79
2023/03/20 13:00:10;;;;;;;13.10;8.20;;;13.80;80.50;;;;;;5001973;28;20468;-78
2023/03/20 13:02:47;;;;;;;26.73;9.53;;;13.80;80.30;;;;;;5005258;28;20502;-77
2023/03/20 13:05:26;;;;;;;22.80;9.17;;;13.80;80.10;;;;;;5005345;28;20465;-78